LIRS/GRS METAR and TAF weather

Enter ICAO airport designator
Station Type Date Time Source
LIRS METAR 2022/06/28 13:55 UTC NOAA

LIRS 281355Z 06016KT 7000 FEW026 31/21 Q1009


Station Type Date Time Source
LIRS Decoded METAR 2022/06/28 13:55 UTC NOAA

Grosseto, Italy (LIRS) 42-45N 011-04E 7M
Jun 28, 2022 - 09:55 AM EDT / 2022.06.28 1355 UTC
Wind: from the ENE (060 degrees) at 18 MPH (16 KT):0
Visibility: 4 mile(s):0
Sky conditions: mostly clear
Temperature: 87 F (31 C)
Dew Point: 69 F (21 C)
Relative Humidity: 55%
Pressure (altimeter): 29.80 in. Hg (1009 hPa)
ob: LIRS 281355Z 06016KT 7000 FEW026 31/21 Q1009
cycle: 14

Station Type Date Time Source
LIRS TAF 2018/06/29 09:24 UTC NOAA

TAF TAF LIRS 290800Z 2909/2921 VRB03KT 9999 FEW030
BECMG 2911/2913 24015KT

Example: see airport list